createdAt,value
2017-08-22T00:01:01.931Z,3.97
2017-08-22T00:03:35.241Z,3.63
2017-08-22T00:06:02.786Z,3.90
2017-08-22T00:08:30.299Z,3.67
2017-08-22T00:10:57.849Z,3.27
2017-08-22T00:13:25.361Z,4.23
2017-08-22T00:15:52.894Z,5.17
2017-08-22T00:18:20.415Z,4.40
2017-08-22T00:20:47.951Z,4.87
2017-08-22T00:23:15.471Z,3.47
2017-08-22T00:25:42.991Z,3.07
2017-08-22T00:28:10.535Z,3.20
2017-08-22T00:30:38.055Z,5.30
2017-08-22T00:33:05.599Z,4.70
2017-08-22T00:35:33.114Z,3.93
2017-08-22T00:38:00.642Z,3.97
2017-08-22T00:40:28.191Z,3.60
2017-08-22T00:42:55.722Z,3.13
2017-08-22T00:45:23.244Z,3.10
2017-08-22T00:47:50.782Z,3.00
2017-08-22T00:50:18.302Z,4.10
2017-08-22T00:52:45.842Z,4.43
2017-08-22T00:55:14.142Z,4.40
2017-08-22T00:57:41.682Z,4.43
2017-08-22T01:00:09.197Z,4.60
2017-08-22T01:02:36.714Z,4.07
2017-08-22T01:05:04.256Z,4.50
2017-08-22T01:07:31.771Z,3.93
2017-08-22T01:09:59.301Z,4.37
2017-08-22T01:12:26.819Z,4.13
2017-08-22T01:14:54.379Z,3.30
2017-08-22T01:17:21.905Z,3.80
2017-08-22T01:19:49.443Z,3.70
2017-08-22T01:22:16.962Z,3.13
2017-08-22T01:24:44.506Z,3.00
2017-08-22T01:27:12.018Z,2.23
2017-08-22T01:29:39.535Z,2.90
2017-08-22T01:32:07.076Z,3.67
2017-08-22T01:34:34.582Z,2.90
2017-08-22T01:37:02.115Z,2.53
2017-08-22T01:39:29.638Z,3.10
2017-08-22T01:41:57.174Z,3.30
2017-08-22T01:44:24.695Z,2.70
2017-08-22T01:46:52.232Z,2.70
2017-08-22T01:49:19.755Z,2.97
2017-08-22T01:51:47.295Z,2.93
2017-08-22T01:54:14.810Z,3.57
2017-08-22T01:56:42.360Z,3.87
2017-08-22T01:59:09.877Z,3.80
2017-08-22T02:01:37.398Z,2.67
2017-08-22T02:04:04.938Z,3.33
2017-08-22T02:06:32.455Z,3.17
2017-08-22T02:08:59.995Z,2.80
2017-08-22T02:11:27.515Z,3.47
2017-08-22T02:13:55.053Z,2.90
2017-08-22T02:16:22.569Z,3.20
2017-08-22T02:18:50.105Z,2.97
2017-08-22T02:21:17.619Z,2.77
2017-08-22T02:23:45.155Z,2.80
2017-08-22T02:26:12.675Z,2.90
2017-08-22T02:28:40.218Z,4.33
2017-08-22T02:31:07.739Z,3.60
2017-08-22T02:33:35.284Z,3.53
2017-08-22T02:36:02.798Z,3.20
2017-08-22T02:38:30.311Z,3.33
2017-08-22T02:40:57.846Z,2.47
2017-08-22T02:43:25.367Z,2.70
2017-08-22T02:45:52.904Z,4.07
2017-08-22T02:48:20.430Z,3.60
2017-08-22T02:50:47.970Z,3.17
2017-08-22T02:53:15.487Z,3.47
2017-08-22T02:55:43.033Z,3.90
2017-08-22T02:58:10.554Z,3.37
2017-08-22T03:00:38.094Z,3.90
2017-08-22T03:03:05.614Z,3.93
2017-08-22T03:05:33.150Z,3.60
2017-08-22T03:08:00.669Z,3.33
2017-08-22T03:10:28.211Z,3.40
2017-08-22T03:12:55.726Z,3.70
2017-08-22T03:15:23.246Z,3.20
2017-08-22T03:17:50.783Z,3.50
2017-08-22T03:20:18.303Z,3.03
2017-08-22T03:22:45.843Z,3.20
2017-08-22T03:25:13.361Z,3.27
2017-08-22T03:27:40.898Z,4.50
2017-08-22T03:30:08.423Z,3.30
2017-08-22T03:32:35.962Z,4.50
2017-08-22T03:35:03.483Z,4.50
2017-08-22T03:37:31.014Z,3.47
2017-08-22T03:39:58.539Z,3.00
2017-08-22T03:42:26.079Z,2.53
2017-08-22T03:44:53.604Z,2.90
2017-08-22T03:47:21.137Z,2.80
2017-08-22T03:49:55.106Z,3.10
2017-08-22T03:52:22.656Z,2.60
2017-08-22T03:54:50.179Z,3.37
2017-08-22T03:57:17.695Z,3.33
2017-08-22T03:59:45.232Z,2.50
2017-08-22T04:02:12.755Z,2.87
2017-08-22T04:04:40.317Z,3.07
2017-08-22T04:07:07.835Z,2.27
2017-08-22T04:09:35.387Z,2.70
2017-08-22T04:12:02.903Z,2.60
2017-08-22T04:14:30.435Z,3.00
2017-08-22T04:16:57.948Z,2.43
2017-08-22T04:19:25.483Z,3.63
2017-08-22T04:21:53.011Z,3.20
2017-08-22T04:24:20.550Z,3.47
2017-08-22T04:26:48.075Z,2.87
2017-08-22T04:29:15.610Z,3.43
2017-08-22T04:31:43.131Z,3.77
2017-08-22T04:34:10.666Z,3.80
2017-08-22T04:36:38.182Z,3.70
2017-08-22T04:39:05.699Z,3.53
2017-08-22T04:41:33.234Z,3.63
2017-08-22T04:44:00.758Z,3.50
2017-08-22T04:46:28.298Z,3.90
2017-08-22T04:48:55.818Z,3.67
2017-08-22T04:51:23.355Z,2.80
2017-08-22T04:53:50.871Z,2.97
2017-08-22T04:56:18.403Z,4.80
2017-08-22T04:58:45.918Z,3.70
2017-08-22T05:01:13.459Z,4.07
2017-08-22T05:03:40.990Z,4.77
2017-08-22T05:06:08.545Z,4.40
2017-08-22T05:08:36.070Z,4.80
2017-08-22T05:11:03.607Z,4.80
2017-08-22T05:13:31.130Z,3.67
2017-08-22T05:15:58.679Z,4.40
2017-08-22T05:18:26.198Z,4.33
2017-08-22T05:20:53.721Z,3.50
2017-08-22T05:23:21.277Z,3.80
2017-08-22T05:25:49.368Z,2.90
2017-08-22T05:28:16.906Z,3.70
2017-08-22T05:30:44.535Z,4.37
2017-08-22T05:33:12.086Z,3.70
2017-08-22T05:35:39.619Z,4.17
2017-08-22T05:38:07.164Z,3.47
2017-08-22T05:40:34.682Z,4.53
2017-08-22T05:43:02.224Z,4.40
2017-08-22T05:45:29.966Z,4.57
2017-08-22T05:47:57.560Z,5.57
2017-08-22T05:50:25.080Z,4.07
2017-08-22T05:52:52.655Z,4.50
2017-08-22T05:55:20.191Z,3.93
2017-08-22T05:57:51.446Z,3.83
2017-08-22T06:00:19.811Z,3.80
2017-08-22T06:02:47.334Z,3.83
2017-08-22T06:05:14.874Z,4.20
2017-08-22T06:07:42.391Z,3.43
2017-08-22T06:10:09.951Z,3.70
2017-08-22T06:12:37.471Z,3.37
2017-08-22T06:15:05.011Z,3.97
2017-08-22T06:17:32.541Z,4.20
2017-08-22T06:20:00.078Z,4.07
2017-08-22T06:22:27.611Z,3.80
2017-08-22T06:24:55.161Z,3.13
2017-08-22T06:27:22.686Z,3.20
2017-08-22T06:29:50.236Z,3.33
2017-08-22T06:32:17.754Z,3.27
2017-08-22T06:34:45.280Z,3.03
2017-08-22T06:37:12.824Z,2.60
2017-08-22T06:39:40.342Z,2.23
2017-08-22T06:42:07.880Z,2.37
2017-08-22T06:44:35.407Z,2.90
2017-08-22T06:47:02.956Z,2.23
2017-08-22T06:49:30.523Z,2.83
2017-08-22T06:51:58.061Z,2.43
2017-08-22T06:54:25.592Z,3.10
2017-08-22T06:56:53.139Z,3.10
2017-08-22T06:59:20.666Z,3.10
2017-08-22T07:01:48.220Z,2.70
2017-08-22T07:04:15.735Z,2.90
2017-08-22T07:06:43.259Z,2.80
2017-08-22T07:09:10.801Z,2.93
2017-08-22T07:11:38.340Z,2.80
2017-08-22T07:14:05.887Z,2.43
2017-08-22T07:16:33.416Z,3.20
2017-08-22T07:19:00.955Z,3.07
2017-08-22T07:21:28.479Z,2.67
2017-08-22T07:23:56.026Z,2.63
2017-08-22T07:26:23.548Z,2.93
2017-08-22T07:28:51.090Z,3.33
2017-08-22T07:31:18.618Z,2.80
2017-08-22T07:33:46.159Z,2.97
2017-08-22T07:36:13.699Z,3.23
2017-08-22T07:38:41.252Z,3.00
2017-08-22T07:41:08.771Z,3.13
2017-08-22T07:43:36.295Z,3.43
2017-08-22T07:46:03.860Z,3.00
2017-08-22T07:48:31.392Z,3.13
2017-08-22T07:50:58.933Z,3.07
2017-08-22T07:53:26.459Z,3.37
2017-08-22T07:55:54.002Z,3.43
2017-08-22T07:58:22.035Z,2.70
2017-08-22T08:00:49.578Z,2.73
2017-08-22T08:03:17.102Z,2.83
2017-08-22T08:05:44.642Z,2.37
2017-08-22T08:08:12.159Z,3.03
2017-08-22T08:10:39.711Z,2.83
2017-08-22T08:13:07.237Z,3.63
2017-08-22T08:15:34.771Z,2.77
2017-08-22T08:18:02.311Z,3.20
2017-08-22T08:20:29.830Z,2.70
2017-08-22T08:22:57.370Z,3.67
2017-08-22T08:25:24.895Z,3.17
2017-08-22T08:27:52.440Z,3.03
2017-08-22T08:30:19.967Z,3.10
2017-08-22T08:32:47.510Z,2.70
2017-08-22T08:35:15.031Z,2.33
2017-08-22T08:37:42.642Z,2.80
2017-08-22T08:40:10.163Z,2.37
2017-08-22T08:42:37.730Z,2.40
2017-08-22T08:45:05.255Z,2.67
2017-08-22T08:47:32.798Z,2.97
2017-08-22T08:50:00.319Z,2.37
2017-08-22T08:52:27.859Z,2.43
2017-08-22T08:54:55.382Z,2.60
2017-08-22T08:57:22.932Z,2.30
2017-08-22T08:59:50.457Z,2.47
2017-08-22T09:02:17.982Z,2.97
2017-08-22T09:04:45.547Z,2.97
2017-08-22T09:07:13.075Z,2.60
2017-08-22T09:09:40.623Z,2.87
2017-08-22T09:12:08.142Z,2.57
2017-08-22T09:14:35.691Z,2.87
2017-08-22T09:17:03.223Z,2.70
2017-08-22T09:19:30.778Z,2.60
2017-08-22T09:21:58.300Z,4.90
2017-08-22T09:24:25.849Z,3.07
2017-08-22T09:26:53.378Z,2.93
2017-08-22T09:29:20.921Z,2.53
2017-08-22T09:31:48.446Z,3.03
2017-08-22T09:34:15.998Z,2.33
2017-08-22T09:36:43.525Z,2.70
2017-08-22T09:39:11.083Z,2.93
2017-08-22T09:41:38.603Z,3.10
2017-08-22T09:44:06.136Z,3.63
2017-08-22T09:46:33.694Z,3.57
2017-08-22T09:49:01.227Z,2.87
2017-08-22T09:51:28.772Z,3.33
2017-08-22T09:53:56.299Z,2.33
2017-08-22T09:56:23.843Z,2.80
2017-08-22T09:58:51.359Z,3.10
2017-08-22T10:01:19.008Z,3.10
2017-08-22T10:03:46.565Z,2.90
2017-08-22T10:06:14.119Z,3.17
2017-08-22T10:08:41.647Z,2.57
2017-08-22T10:11:09.190Z,3.60
2017-08-22T10:13:36.734Z,2.00
2017-08-22T10:16:04.266Z,2.10
2017-08-22T10:19:08.002Z,2.60
2017-08-22T10:21:35.526Z,1.70
2017-08-22T10:24:03.067Z,2.27
2017-08-22T10:26:31.356Z,2.60
2017-08-22T10:28:58.903Z,2.00
2017-08-22T10:31:26.426Z,1.90
2017-08-22T10:33:53.970Z,2.77
2017-08-22T10:36:21.490Z,2.80
2017-08-22T10:38:49.038Z,2.20
2017-08-22T10:41:16.563Z,2.57
2017-08-22T10:43:44.108Z,2.57
2017-08-22T10:46:11.631Z,2.73
2017-08-22T10:48:39.170Z,2.50
2017-08-22T10:51:06.708Z,2.33
2017-08-22T10:53:34.230Z,2.80
2017-08-22T10:56:01.770Z,2.30
2017-08-22T10:58:29.290Z,3.00
2017-08-22T11:00:56.838Z,3.40
2017-08-22T11:03:24.370Z,2.90
2017-08-22T11:05:51.911Z,2.50
2017-08-22T11:08:19.438Z,2.80
2017-08-22T11:10:46.978Z,2.50
2017-08-22T11:13:14.500Z,2.80
2017-08-22T11:15:42.059Z,2.37
2017-08-22T11:18:09.575Z,2.50
2017-08-22T11:20:37.118Z,2.60
2017-08-22T11:23:04.643Z,2.23
2017-08-22T11:25:32.186Z,2.80
2017-08-22T11:27:59.712Z,2.50
2017-08-22T11:30:27.239Z,2.90
2017-08-22T11:32:54.783Z,2.40
2017-08-22T11:35:22.307Z,2.67
2017-08-22T11:37:49.843Z,2.80
2017-08-22T11:40:17.365Z,2.87
2017-08-22T11:42:44.904Z,2.23
2017-08-22T11:45:12.427Z,2.73
2017-08-22T11:47:39.970Z,2.73
2017-08-22T11:50:07.487Z,2.40
2017-08-22T11:52:35.038Z,2.63
2017-08-22T11:55:02.559Z,2.23
2017-08-22T11:57:30.107Z,3.20
2017-08-22T11:59:57.630Z,2.27
2017-08-22T12:02:25.166Z,2.10
2017-08-22T12:04:52.691Z,2.30
2017-08-22T12:07:20.252Z,2.20
2017-08-22T12:09:47.772Z,2.33
2017-08-22T12:12:15.307Z,2.10
2017-08-22T12:14:42.846Z,1.93
2017-08-22T12:17:10.369Z,2.13
2017-08-22T12:19:37.916Z,1.80
2017-08-22T12:22:05.452Z,2.10
2017-08-22T12:24:34.270Z,2.27
2017-08-22T12:27:01.794Z,2.73
2017-08-22T12:29:29.339Z,2.23
2017-08-22T12:31:56.923Z,1.90
2017-08-22T12:34:24.584Z,1.80
2017-08-22T12:36:52.158Z,1.80
2017-08-22T12:39:19.734Z,1.90
2017-08-22T12:41:47.297Z,2.17
2017-08-22T12:44:14.865Z,2.30
2017-08-22T12:46:42.424Z,2.13
2017-08-22T12:49:09.979Z,2.40
2017-08-22T12:51:37.578Z,2.33
2017-08-22T12:54:05.147Z,1.80
2017-08-22T12:56:32.756Z,2.27
2017-08-22T12:59:00.328Z,1.90
2017-08-22T13:01:27.868Z,2.03
2017-08-22T13:03:55.395Z,2.30
2017-08-22T13:06:22.940Z,1.87
2017-08-22T13:08:50.467Z,2.23
2017-08-22T13:11:17.988Z,2.03
2017-08-22T13:13:45.532Z,1.77
2017-08-22T13:16:13.067Z,2.00
2017-08-22T13:18:40.614Z,2.17
2017-08-22T13:21:08.136Z,2.13
2017-08-22T13:23:35.675Z,2.20
2017-08-22T13:26:03.205Z,2.30
2017-08-22T13:28:30.747Z,2.47
2017-08-22T13:30:58.262Z,1.77
2017-08-22T13:33:25.803Z,2.13
2017-08-22T13:35:53.328Z,2.20
2017-08-22T13:38:20.867Z,2.03
2017-08-22T13:40:48.487Z,2.10
2017-08-22T13:43:16.010Z,2.17
2017-08-22T13:45:43.551Z,2.47
2017-08-22T13:48:11.070Z,2.67
2017-08-22T13:50:38.606Z,2.40
2017-08-22T13:53:06.128Z,2.40
2017-08-22T13:55:33.676Z,2.40
2017-08-22T13:58:01.214Z,2.50
2017-08-22T14:00:28.750Z,2.30
2017-08-22T14:02:56.322Z,1.90
2017-08-22T14:05:23.871Z,2.00
2017-08-22T14:07:51.395Z,2.33
2017-08-22T14:10:18.935Z,2.77
2017-08-22T14:12:46.458Z,3.00
2017-08-22T14:15:14.015Z,2.03
2017-08-22T14:17:41.533Z,2.33
2017-08-22T14:20:09.130Z,2.60
2017-08-22T14:22:36.739Z,2.90
2017-08-22T14:25:04.267Z,2.57
2017-08-22T14:27:31.819Z,2.90
2017-08-22T14:29:59.346Z,2.80
2017-08-22T14:32:26.971Z,3.23
2017-08-22T14:34:54.486Z,2.77
2017-08-22T14:37:22.026Z,3.03
2017-08-22T14:39:49.575Z,2.60
2017-08-22T14:42:17.111Z,3.07
2017-08-22T14:44:44.633Z,2.77
2017-08-22T14:47:12.155Z,2.60
2017-08-22T14:49:39.910Z,3.20
2017-08-22T14:52:07.438Z,3.43
2017-08-22T14:54:34.983Z,2.80
2017-08-22T14:57:02.520Z,2.90
2017-08-22T14:59:30.062Z,2.50
2017-08-22T15:01:57.578Z,2.60
2017-08-22T15:04:25.114Z,3.10
2017-08-22T15:06:52.636Z,2.80
2017-08-22T15:09:20.179Z,2.60
2017-08-22T15:11:47.700Z,3.13
2017-08-22T15:14:15.238Z,3.67
2017-08-22T15:16:42.757Z,2.93
2017-08-22T15:19:10.290Z,2.50
2017-08-22T15:21:37.809Z,3.07
2017-08-22T15:24:05.330Z,2.60
2017-08-22T15:26:32.868Z,2.70
2017-08-22T15:29:00.382Z,4.60
2017-08-22T15:31:27.921Z,2.97
2017-08-22T15:33:55.446Z,2.67
2017-08-22T15:36:22.987Z,2.50
2017-08-22T15:38:50.515Z,2.33
2017-08-22T15:41:18.058Z,3.07
2017-08-22T15:43:45.578Z,3.30
2017-08-22T15:46:13.116Z,3.07
2017-08-22T15:48:40.644Z,2.37
2017-08-22T15:51:08.191Z,2.87
2017-08-22T15:53:35.715Z,3.20
2017-08-22T15:56:03.250Z,3.20
2017-08-22T15:58:30.774Z,3.07
2017-08-22T16:00:58.315Z,3.10
2017-08-22T16:03:25.831Z,2.50
2017-08-22T16:05:53.351Z,3.00
2017-08-22T16:08:20.896Z,4.10
2017-08-22T16:10:48.418Z,3.80
2017-08-22T16:13:15.962Z,3.13
2017-08-22T16:15:43.482Z,2.90
2017-08-22T16:18:11.026Z,3.17
2017-08-22T16:20:38.543Z,2.87
2017-08-22T16:23:06.082Z,5.10
2017-08-22T16:25:33.598Z,2.80
2017-08-22T16:28:01.150Z,3.30
2017-08-22T16:30:28.667Z,3.73
2017-08-22T16:32:56.210Z,3.47
2017-08-22T16:35:23.758Z,3.80
2017-08-22T16:37:51.288Z,3.50
2017-08-22T16:40:18.826Z,2.90
2017-08-22T16:42:46.346Z,3.67
2017-08-22T16:45:13.882Z,3.40
2017-08-22T16:47:41.407Z,3.23
2017-08-22T16:50:08.942Z,3.60
2017-08-22T16:52:36.507Z,3.50
2017-08-22T16:55:04.046Z,3.40
2017-08-22T16:57:31.567Z,3.00
2017-08-22T16:59:59.106Z,2.80
2017-08-22T17:02:26.623Z,3.83
2017-08-22T17:04:54.170Z,3.80
2017-08-22T17:07:21.698Z,3.60
2017-08-22T17:09:49.222Z,3.93
2017-08-22T17:12:16.767Z,4.60
2017-08-22T17:14:44.291Z,3.17
2017-08-22T17:17:11.834Z,4.03
2017-08-22T17:19:39.356Z,3.60
2017-08-22T17:22:06.895Z,4.07
2017-08-22T17:24:34.415Z,3.63
2017-08-22T17:27:01.959Z,3.13
2017-08-22T17:29:29.474Z,3.47
2017-08-22T17:31:57.014Z,3.43
2017-08-22T17:34:24.537Z,3.20
2017-08-22T17:36:52.079Z,4.23
2017-08-22T17:39:19.592Z,3.90
2017-08-22T17:41:47.131Z,3.87
2017-08-22T17:44:14.651Z,3.93
2017-08-22T17:46:42.189Z,4.13
2017-08-22T17:49:09.716Z,6.20
2017-08-22T17:51:37.275Z,5.37
2017-08-22T17:54:04.799Z,5.27
2017-08-22T17:56:32.324Z,4.70
2017-08-22T17:58:59.855Z,4.70
2017-08-22T18:01:27.386Z,11.47
2017-08-22T18:03:54.930Z,6.00
2017-08-22T18:06:22.458Z,4.63
2017-08-22T18:08:50.002Z,5.60
2017-08-22T18:11:17.522Z,4.63
2017-08-22T18:13:45.062Z,5.53
2017-08-22T18:16:12.586Z,4.80
2017-08-22T18:18:40.128Z,4.80
2017-08-22T18:21:07.652Z,4.97
2017-08-22T18:23:35.182Z,4.33
2017-08-22T18:26:02.701Z,4.77
2017-08-22T18:28:30.253Z,3.57
2017-08-22T18:30:57.780Z,4.70
2017-08-22T18:33:25.295Z,4.00
2017-08-22T18:35:52.835Z,4.80
2017-08-22T18:38:20.357Z,4.37
2017-08-22T18:40:47.903Z,4.53
2017-08-22T18:43:15.422Z,4.73
2017-08-22T18:45:42.958Z,4.20
2017-08-22T18:48:10.478Z,4.13
2017-08-22T18:50:38.023Z,5.03
2017-08-22T18:53:05.548Z,3.77
2017-08-22T18:55:33.088Z,3.90
2017-08-22T18:58:00.599Z,4.20
2017-08-22T19:00:28.145Z,4.67
2017-08-22T19:02:55.683Z,3.93
2017-08-22T19:05:23.229Z,4.40
2017-08-22T19:07:50.754Z,3.93
2017-08-22T19:10:18.314Z,4.90
2017-08-22T19:12:45.838Z,3.87
2017-08-22T19:15:13.353Z,3.60
2017-08-22T19:17:40.903Z,4.33
2017-08-22T19:20:08.418Z,3.67
2017-08-22T19:22:35.954Z,4.00
2017-08-22T19:25:03.480Z,4.33
2017-08-22T19:27:31.015Z,4.67
2017-08-22T19:29:58.548Z,4.50
2017-08-22T19:32:26.097Z,4.27
2017-08-22T19:34:53.626Z,4.17
2017-08-22T19:37:21.164Z,3.60
2017-08-22T19:39:48.694Z,3.03
2017-08-22T19:42:16.243Z,4.07
2017-08-22T19:44:43.763Z,3.40
2017-08-22T19:47:11.287Z,3.80
2017-08-22T19:49:38.827Z,3.73
2017-08-22T19:52:06.347Z,4.00
2017-08-22T19:54:33.887Z,3.90
2017-08-22T19:57:01.411Z,4.80
2017-08-22T19:59:28.946Z,3.87
2017-08-22T20:01:56.727Z,4.80
2017-08-22T20:04:24.327Z,3.87
2017-08-22T20:06:51.850Z,4.30
2017-08-22T20:09:19.386Z,4.93
2017-08-22T20:11:46.907Z,4.93
2017-08-22T20:14:14.451Z,4.63
2017-08-22T20:16:41.983Z,4.53
2017-08-22T20:19:09.540Z,3.90
2017-08-22T20:21:37.066Z,4.00
2017-08-22T20:24:04.595Z,4.23
2017-08-22T20:26:32.138Z,4.03
2017-08-22T20:28:59.669Z,3.80
2017-08-22T20:31:27.486Z,5.03
2017-08-22T20:33:55.635Z,4.00
2017-08-22T20:36:26.571Z,4.40
2017-08-22T20:38:54.337Z,4.50
2017-08-22T20:41:22.790Z,4.83
2017-08-22T20:43:50.790Z,4.47
2017-08-22T20:46:18.914Z,4.60
2017-08-22T20:48:46.970Z,4.10
2017-08-22T20:51:14.568Z,3.93
2017-08-22T20:53:42.087Z,4.17
2017-08-22T20:56:09.630Z,4.33
2017-08-22T20:58:37.195Z,4.10
2017-08-22T21:01:04.739Z,3.80
2017-08-22T21:03:32.260Z,4.10
2017-08-22T21:05:59.779Z,4.23
2017-08-22T21:08:27.322Z,4.03
2017-08-22T21:10:54.851Z,4.63
2017-08-22T21:13:22.392Z,4.17
2017-08-22T21:15:49.906Z,4.43
2017-08-22T21:18:17.439Z,4.30
2017-08-22T21:20:44.961Z,4.50
2017-08-22T21:23:12.502Z,4.93
2017-08-22T21:25:40.026Z,4.17
2017-08-22T21:28:07.567Z,4.77
2017-08-22T21:30:35.086Z,4.27
2017-08-22T21:33:02.634Z,3.70
2017-08-22T21:35:30.150Z,4.50
2017-08-22T21:37:57.711Z,4.60
2017-08-22T21:40:25.259Z,4.73
2017-08-22T21:42:52.783Z,5.37
2017-08-22T21:45:20.325Z,5.47
2017-08-22T21:47:47.843Z,5.20
2017-08-22T21:50:15.382Z,5.10
2017-08-22T21:52:42.903Z,4.80
2017-08-22T21:55:10.448Z,5.10
2017-08-22T21:57:37.965Z,4.30
2017-08-22T22:00:05.509Z,4.20
2017-08-22T22:02:33.037Z,5.00
2017-08-22T22:05:00.587Z,5.30
2017-08-22T22:07:28.114Z,4.73
2017-08-22T22:09:55.636Z,4.70
2017-08-22T22:12:23.176Z,4.73
2017-08-22T22:14:50.695Z,5.80
2017-08-22T22:17:18.231Z,5.37
2017-08-22T22:19:45.750Z,6.07
2017-08-22T22:22:13.291Z,6.27
2017-08-22T22:24:40.810Z,5.23
2017-08-22T22:27:08.355Z,5.13
2017-08-22T22:29:35.880Z,5.40
2017-08-22T22:32:03.417Z,4.90
2017-08-22T22:34:30.940Z,5.23
2017-08-22T22:36:58.475Z,4.27
2017-08-22T22:39:25.993Z,6.00
2017-08-22T22:41:53.555Z,5.40
2017-08-22T22:44:21.079Z,5.47
2017-08-22T22:46:48.602Z,5.60
2017-08-22T22:49:16.133Z,5.60
2017-08-22T22:51:43.661Z,4.93
2017-08-22T22:54:11.206Z,4.80
2017-08-22T22:56:38.731Z,5.07
2017-08-22T22:59:06.272Z,5.43
2017-08-22T23:01:33.791Z,4.80
2017-08-22T23:04:01.336Z,5.10
2017-08-22T23:06:28.863Z,6.53
2017-08-22T23:08:56.401Z,5.00
2017-08-22T23:11:23.921Z,4.90
2017-08-22T23:13:51.488Z,5.07
2017-08-22T23:16:19.008Z,4.63
2017-08-22T23:18:46.555Z,5.73
2017-08-22T23:21:14.082Z,5.33
2017-08-22T23:23:41.606Z,5.90
2017-08-22T23:26:09.143Z,5.70
2017-08-22T23:28:36.668Z,5.57
2017-08-22T23:31:04.202Z,5.00
2017-08-22T23:33:31.722Z,6.03
2017-08-22T23:35:59.259Z,6.07
2017-08-22T23:38:26.778Z,5.30
2017-08-22T23:40:54.319Z,5.40
2017-08-22T23:43:21.841Z,6.30
2017-08-22T23:45:49.374Z,5.50
2017-08-22T23:48:16.890Z,6.00
2017-08-22T23:50:44.431Z,6.70
2017-08-22T23:53:11.950Z,6.40
2017-08-22T23:55:39.501Z,6.07
2017-08-22T23:58:07.022Z,6.60
